sensor_id;sensor_type;location;lat;lon;timestamp;temperature;humidity
8792;DHT22;4432;50.890;4.744;2023-07-13T00:02:24;15.70;99.90
8792;DHT22;4432;50.890;4.744;2023-07-13T00:04:50;15.70;99.90
8792;DHT22;4432;50.890;4.744;2023-07-13T00:07:16;15.70;99.90
8792;DHT22;4432;50.890;4.744;2023-07-13T00:09:46;15.70;99.90
8792;DHT22;4432;50.890;4.744;2023-07-13T00:12:34;15.70;99.90
8792;DHT22;4432;50.890;4.744;2023-07-13T00:15:03;15.70;99.90
8792;DHT22;4432;50.890;4.744;2023-07-13T00:17:29;15.60;99.90
8792;DHT22;4432;50.890;4.744;2023-07-13T00:19:56;15.60;99.90
8792;DHT22;4432;50.890;4.744;2023-07-13T00:22:23;15.50;99.90
8792;DHT22;4432;50.890;4.744;2023-07-13T00:24:53;15.50;99.90
8792;DHT22;4432;50.890;4.744;2023-07-13T00:27:21;15.50;99.90
8792;DHT22;4432;50.890;4.744;2023-07-13T00:29:47;15.50;99.90
8792;DHT22;4432;50.890;4.744;2023-07-13T00:32:12;15.50;99.90
8792;DHT22;4432;50.890;4.744;2023-07-13T00:34:38;15.50;99.90
8792;DHT22;4432;50.890;4.744;2023-07-13T00:37:06;15.50;99.90
8792;DHT22;4432;50.890;4.744;2023-07-13T00:39:32;15.40;99.90
8792;DHT22;4432;50.890;4.744;2023-07-13T00:41:58;15.40;99.90
8792;DHT22;4432;50.890;4.744;2023-07-13T00:44:24;15.40;99.90
8792;DHT22;4432;50.890;4.744;2023-07-13T00:46:51;15.40;99.90
8792;DHT22;4432;50.890;4.744;2023-07-13T00:49:20;15.30;99.90
8792;DHT22;4432;50.890;4.744;2023-07-13T00:51:56;15.30;99.90
8792;DHT22;4432;50.890;4.744;2023-07-13T00:54:52;15.30;99.90
8792;DHT22;4432;50.890;4.744;2023-07-13T00:57:19;15.30;99.90
8792;DHT22;4432;50.890;4.744;2023-07-13T00:59:50;15.30;99.90
8792;DHT22;4432;50.890;4.744;2023-07-13T01:02:16;15.30;99.90
8792;DHT22;4432;50.890;4.744;2023-07-13T01:04:42;15.20;99.90
8792;DHT22;4432;50.890;4.744;2023-07-13T01:07:10;15.20;99.90
8792;DHT22;4432;50.890;4.744;2023-07-13T01:09:37;15.10;99.90
8792;DHT22;4432;50.890;4.744;2023-07-13T01:12:03;15.10;99.90
8792;DHT22;4432;50.890;4.744;2023-07-13T01:14:29;15.10;99.90
8792;DHT22;4432;50.890;4.744;2023-07-13T01:16:55;15.00;99.90
8792;DHT22;4432;50.890;4.744;2023-07-13T01:19:44;15.00;99.90
8792;DHT22;4432;50.890;4.744;2023-07-13T01:22:15;15.10;99.90
8792;DHT22;4432;50.890;4.744;2023-07-13T01:24:44;15.10;99.90
8792;DHT22;4432;50.890;4.744;2023-07-13T01:27:14;15.00;99.90
8792;DHT22;4432;50.890;4.744;2023-07-13T01:29:41;15.00;99.90
8792;DHT22;4432;50.890;4.744;2023-07-13T01:32:15;14.90;99.90
8792;DHT22;4432;50.890;4.744;2023-07-13T01:34:41;15.00;99.90
8792;DHT22;4432;50.890;4.744;2023-07-13T01:37:12;15.00;99.90
8792;DHT22;4432;50.890;4.744;2023-07-13T01:39:38;15.00;99.90
8792;DHT22;4432;50.890;4.744;2023-07-13T01:42:04;15.00;99.90
8792;DHT22;4432;50.890;4.744;2023-07-13T01:44:30;15.00;99.90
8792;DHT22;4432;50.890;4.744;2023-07-13T01:46:56;15.00;99.90
8792;DHT22;4432;50.890;4.744;2023-07-13T01:49:22;15.00;99.90
8792;DHT22;4432;50.890;4.744;2023-07-13T01:51:48;14.90;99.90
8792;DHT22;4432;50.890;4.744;2023-07-13T01:54:13;14.90;99.90
8792;DHT22;4432;50.890;4.744;2023-07-13T01:56:39;14.90;99.90
8792;DHT22;4432;50.890;4.744;2023-07-13T01:59:08;14.90;99.90
8792;DHT22;4432;50.890;4.744;2023-07-13T02:01:33;14.90;99.90
8792;DHT22;4432;50.890;4.744;2023-07-13T02:03:59;14.90;99.90
8792;DHT22;4432;50.890;4.744;2023-07-13T02:06:25;14.80;99.90
8792;DHT22;4432;50.890;4.744;2023-07-13T02:08:51;14.80;99.90
8792;DHT22;4432;50.890;4.744;2023-07-13T02:11:17;14.80;99.90
8792;DHT22;4432;50.890;4.744;2023-07-13T02:13:43;14.70;99.90
8792;DHT22;4432;50.890;4.744;2023-07-13T02:16:09;14.80;99.90
8792;DHT22;4432;50.890;4.744;2023-07-13T02:18:35;14.70;99.90
8792;DHT22;4432;50.890;4.744;2023-07-13T02:21:01;14.70;99.90
8792;DHT22;4432;50.890;4.744;2023-07-13T02:23:28;14.70;99.90
8792;DHT22;4432;50.890;4.744;2023-07-13T02:25:58;14.70;99.90
8792;DHT22;4432;50.890;4.744;2023-07-13T02:28:24;14.70;99.90
8792;DHT22;4432;50.890;4.744;2023-07-13T02:30:50;14.70;99.90
8792;DHT22;4432;50.890;4.744;2023-07-13T02:33:16;14.80;99.90
8792;DHT22;4432;50.890;4.744;2023-07-13T02:35:42;14.80;99.90
8792;DHT22;4432;50.890;4.744;2023-07-13T02:38:08;14.90;99.90
8792;DHT22;4432;50.890;4.744;2023-07-13T02:40:34;14.90;99.90
8792;DHT22;4432;50.890;4.744;2023-07-13T02:43:01;15.00;99.90
8792;DHT22;4432;50.890;4.744;2023-07-13T02:45:27;15.00;99.90
8792;DHT22;4432;50.890;4.744;2023-07-13T02:47:54;15.10;99.90
8792;DHT22;4432;50.890;4.744;2023-07-13T02:50:20;15.10;99.90
8792;DHT22;4432;50.890;4.744;2023-07-13T02:52:46;15.00;99.90
8792;DHT22;4432;50.890;4.744;2023-07-13T02:55:12;15.00;99.90
8792;DHT22;4432;50.890;4.744;2023-07-13T02:57:37;15.10;99.90
8792;DHT22;4432;50.890;4.744;2023-07-13T03:00:04;15.10;99.90
8792;DHT22;4432;50.890;4.744;2023-07-13T03:02:31;15.10;99.90
8792;DHT22;4432;50.890;4.744;2023-07-13T03:04:57;15.10;99.90
8792;DHT22;4432;50.890;4.744;2023-07-13T03:07:23;15.00;99.90
8792;DHT22;4432;50.890;4.744;2023-07-13T03:09:57;15.00;99.90
8792;DHT22;4432;50.890;4.744;2023-07-13T03:12:24;15.00;99.90
8792;DHT22;4432;50.890;4.744;2023-07-13T03:14:50;15.00;99.90
8792;DHT22;4432;50.890;4.744;2023-07-13T03:17:16;15.10;99.90
8792;DHT22;4432;50.890;4.744;2023-07-13T03:19:42;15.10;99.90
8792;DHT22;4432;50.890;4.744;2023-07-13T03:22:09;15.10;99.90
8792;DHT22;4432;50.890;4.744;2023-07-13T03:24:35;15.10;99.90
8792;DHT22;4432;50.890;4.744;2023-07-13T03:27:03;15.10;99.90
8792;DHT22;4432;50.890;4.744;2023-07-13T03:29:29;15.10;99.90
8792;DHT22;4432;50.890;4.744;2023-07-13T03:31:55;15.10;99.90
8792;DHT22;4432;50.890;4.744;2023-07-13T03:34:20;15.10;99.90
8792;DHT22;4432;50.890;4.744;2023-07-13T03:36:46;15.10;99.90
8792;DHT22;4432;50.890;4.744;2023-07-13T03:39:12;15.10;99.90
8792;DHT22;4432;50.890;4.744;2023-07-13T03:41:38;15.10;99.90
8792;DHT22;4432;50.890;4.744;2023-07-13T03:44:04;15.10;99.90
8792;DHT22;4432;50.890;4.744;2023-07-13T03:46:30;15.10;99.90
8792;DHT22;4432;50.890;4.744;2023-07-13T03:48:57;15.00;99.90
8792;DHT22;4432;50.890;4.744;2023-07-13T03:51:23;15.10;99.90
8792;DHT22;4432;50.890;4.744;2023-07-13T03:53:50;15.10;99.90
8792;DHT22;4432;50.890;4.744;2023-07-13T03:56:17;15.10;99.90
8792;DHT22;4432;50.890;4.744;2023-07-13T03:58:45;15.00;99.90
8792;DHT22;4432;50.890;4.744;2023-07-13T04:01:13;15.00;99.90
8792;DHT22;4432;50.890;4.744;2023-07-13T04:03:39;15.10;99.90
8792;DHT22;4432;50.890;4.744;2023-07-13T04:06:08;15.10;99.90
8792;DHT22;4432;50.890;4.744;2023-07-13T04:08:35;15.20;99.90
8792;DHT22;4432;50.890;4.744;2023-07-13T04:11:02;15.20;99.90
8792;DHT22;4432;50.890;4.744;2023-07-13T04:13:29;15.20;99.90
8792;DHT22;4432;50.890;4.744;2023-07-13T04:15:55;15.20;99.90
8792;DHT22;4432;50.890;4.744;2023-07-13T04:18:21;15.20;99.90
8792;DHT22;4432;50.890;4.744;2023-07-13T04:20:48;15.20;99.90
8792;DHT22;4432;50.890;4.744;2023-07-13T04:23:15;15.20;99.90
8792;DHT22;4432;50.890;4.744;2023-07-13T04:25:45;15.20;99.90
8792;DHT22;4432;50.890;4.744;2023-07-13T04:28:12;15.30;99.90
8792;DHT22;4432;50.890;4.744;2023-07-13T04:30:38;15.20;99.90
8792;DHT22;4432;50.890;4.744;2023-07-13T04:33:03;15.30;99.90
8792;DHT22;4432;50.890;4.744;2023-07-13T04:35:30;15.30;99.90
8792;DHT22;4432;50.890;4.744;2023-07-13T04:37:57;15.40;99.90
8792;DHT22;4432;50.890;4.744;2023-07-13T04:40:23;15.40;99.90
8792;DHT22;4432;50.890;4.744;2023-07-13T04:42:48;15.40;99.90
8792;DHT22;4432;50.890;4.744;2023-07-13T04:45:14;15.40;99.90
8792;DHT22;4432;50.890;4.744;2023-07-13T04:47:41;15.50;99.90
8792;DHT22;4432;50.890;4.744;2023-07-13T04:50:08;15.60;99.90
8792;DHT22;4432;50.890;4.744;2023-07-13T04:52:34;15.60;99.90
8792;DHT22;4432;50.890;4.744;2023-07-13T04:55:00;15.70;99.90
8792;DHT22;4432;50.890;4.744;2023-07-13T04:57:27;15.60;99.90
8792;DHT22;4432;50.890;4.744;2023-07-13T04:59:53;15.60;99.90
8792;DHT22;4432;50.890;4.744;2023-07-13T05:02:21;15.60;99.90
8792;DHT22;4432;50.890;4.744;2023-07-13T05:04:47;15.50;99.90
8792;DHT22;4432;50.890;4.744;2023-07-13T05:07:13;15.60;99.90
8792;DHT22;4432;50.890;4.744;2023-07-13T05:09:39;15.80;99.90
8792;DHT22;4432;50.890;4.744;2023-07-13T05:12:07;15.90;99.90
8792;DHT22;4432;50.890;4.744;2023-07-13T05:14:33;15.90;99.90
8792;DHT22;4432;50.890;4.744;2023-07-13T05:16:59;15.90;99.90
8792;DHT22;4432;50.890;4.744;2023-07-13T05:19:25;16.00;99.90
8792;DHT22;4432;50.890;4.744;2023-07-13T05:21:51;16.00;99.90
8792;DHT22;4432;50.890;4.744;2023-07-13T05:24:17;16.10;99.90
8792;DHT22;4432;50.890;4.744;2023-07-13T05:26:44;16.10;99.90
8792;DHT22;4432;50.890;4.744;2023-07-13T05:29:10;16.10;99.90
8792;DHT22;4432;50.890;4.744;2023-07-13T05:31:35;16.20;99.90
8792;DHT22;4432;50.890;4.744;2023-07-13T05:34:02;16.40;99.90
8792;DHT22;4432;50.890;4.744;2023-07-13T05:36:28;16.50;99.90
8792;DHT22;4432;50.890;4.744;2023-07-13T05:38:54;16.60;99.90
8792;DHT22;4432;50.890;4.744;2023-07-13T05:41:19;16.50;99.90
8792;DHT22;4432;50.890;4.744;2023-07-13T05:43:45;16.60;99.90
8792;DHT22;4432;50.890;4.744;2023-07-13T05:46:11;16.70;99.90
8792;DHT22;4432;50.890;4.744;2023-07-13T05:48:37;16.60;99.90
8792;DHT22;4432;50.890;4.744;2023-07-13T05:51:03;16.80;99.90
8792;DHT22;4432;50.890;4.744;2023-07-13T05:53:29;16.90;99.90
8792;DHT22;4432;50.890;4.744;2023-07-13T05:55:55;17.00;99.90
8792;DHT22;4432;50.890;4.744;2023-07-13T05:58:21;16.90;99.90
8792;DHT22;4432;50.890;4.744;2023-07-13T06:00:48;16.90;99.90
8792;DHT22;4432;50.890;4.744;2023-07-13T06:03:15;16.90;99.90
8792;DHT22;4432;50.890;4.744;2023-07-13T06:05:41;16.90;99.90
8792;DHT22;4432;50.890;4.744;2023-07-13T06:08:07;16.90;99.90
8792;DHT22;4432;50.890;4.744;2023-07-13T06:10:34;16.90;99.90
8792;DHT22;4432;50.890;4.744;2023-07-13T06:13:00;17.00;99.90
8792;DHT22;4432;50.890;4.744;2023-07-13T06:15:26;16.90;99.90
8792;DHT22;4432;50.890;4.744;2023-07-13T06:17:52;16.90;99.90
8792;DHT22;4432;50.890;4.744;2023-07-13T06:20:17;17.00;99.90
8792;DHT22;4432;50.890;4.744;2023-07-13T06:22:43;17.10;99.90
8792;DHT22;4432;50.890;4.744;2023-07-13T06:25:09;17.20;99.90
8792;DHT22;4432;50.890;4.744;2023-07-13T06:27:35;17.20;99.90
8792;DHT22;4432;50.890;4.744;2023-07-13T06:30:00;17.20;99.90
8792;DHT22;4432;50.890;4.744;2023-07-13T06:32:26;17.40;99.90
8792;DHT22;4432;50.890;4.744;2023-07-13T06:34:52;17.30;99.90
8792;DHT22;4432;50.890;4.744;2023-07-13T06:37:18;17.40;99.90
8792;DHT22;4432;50.890;4.744;2023-07-13T06:39:44;17.50;99.90
8792;DHT22;4432;50.890;4.744;2023-07-13T06:42:10;17.60;99.90
8792;DHT22;4432;50.890;4.744;2023-07-13T06:44:36;17.70;99.90
8792;DHT22;4432;50.890;4.744;2023-07-13T06:47:02;17.80;99.90
8792;DHT22;4432;50.890;4.744;2023-07-13T06:49:28;17.80;99.90
8792;DHT22;4432;50.890;4.744;2023-07-13T06:51:54;17.80;99.90
8792;DHT22;4432;50.890;4.744;2023-07-13T06:54:20;18.00;99.90
8792;DHT22;4432;50.890;4.744;2023-07-13T06:56:46;18.20;99.90
8792;DHT22;4432;50.890;4.744;2023-07-13T06:59:12;18.10;99.90
8792;DHT22;4432;50.890;4.744;2023-07-13T07:01:37;18.30;99.90
8792;DHT22;4432;50.890;4.744;2023-07-13T07:04:03;18.30;99.90
8792;DHT22;4432;50.890;4.744;2023-07-13T07:06:29;18.40;99.90
8792;DHT22;4432;50.890;4.744;2023-07-13T07:08:55;18.50;99.90
8792;DHT22;4432;50.890;4.744;2023-07-13T07:11:23;18.80;99.90
8792;DHT22;4432;50.890;4.744;2023-07-13T07:13:53;18.60;99.90
8792;DHT22;4432;50.890;4.744;2023-07-13T07:16:19;18.80;99.90
8792;DHT22;4432;50.890;4.744;2023-07-13T07:18:46;19.00;99.90
8792;DHT22;4432;50.890;4.744;2023-07-13T07:21:13;19.10;99.90
8792;DHT22;4432;50.890;4.744;2023-07-13T07:23:39;19.30;99.90
8792;DHT22;4432;50.890;4.744;2023-07-13T07:26:04;19.50;99.90
8792;DHT22;4432;50.890;4.744;2023-07-13T07:28:30;19.50;99.90
8792;DHT22;4432;50.890;4.744;2023-07-13T07:30:57;19.60;99.90
8792;DHT22;4432;50.890;4.744;2023-07-13T07:33:24;19.60;99.90
8792;DHT22;4432;50.890;4.744;2023-07-13T07:35:50;19.60;99.90
8792;DHT22;4432;50.890;4.744;2023-07-13T07:38:16;19.90;99.90
8792;DHT22;4432;50.890;4.744;2023-07-13T07:40:42;20.00;99.90
8792;DHT22;4432;50.890;4.744;2023-07-13T07:43:10;19.80;99.90
8792;DHT22;4432;50.890;4.744;2023-07-13T07:45:36;19.90;99.90
8792;DHT22;4432;50.890;4.744;2023-07-13T07:48:04;19.90;99.90
8792;DHT22;4432;50.890;4.744;2023-07-13T07:50:31;20.20;99.90
8792;DHT22;4432;50.890;4.744;2023-07-13T07:52:57;20.00;99.90
8792;DHT22;4432;50.890;4.744;2023-07-13T07:55:24;20.00;99.90
8792;DHT22;4432;50.890;4.744;2023-07-13T07:57:53;19.80;99.90
8792;DHT22;4432;50.890;4.744;2023-07-13T08:00:19;20.10;99.90
8792;DHT22;4432;50.890;4.744;2023-07-13T08:02:45;20.20;99.90
8792;DHT22;4432;50.890;4.744;2023-07-13T08:05:11;20.20;99.90
8792;DHT22;4432;50.890;4.744;2023-07-13T08:07:38;20.10;99.90
8792;DHT22;4432;50.890;4.744;2023-07-13T08:10:08;20.20;99.90
8792;DHT22;4432;50.890;4.744;2023-07-13T08:12:35;20.40;99.90
8792;DHT22;4432;50.890;4.744;2023-07-13T08:15:01;20.60;99.90
8792;DHT22;4432;50.890;4.744;2023-07-13T08:17:27;20.40;99.90
8792;DHT22;4432;50.890;4.744;2023-07-13T08:19:53;20.70;99.90
8792;DHT22;4432;50.890;4.744;2023-07-13T08:22:19;20.40;99.90
8792;DHT22;4432;50.890;4.744;2023-07-13T08:24:45;20.70;99.90
8792;DHT22;4432;50.890;4.744;2023-07-13T08:27:11;20.70;99.90
8792;DHT22;4432;50.890;4.744;2023-07-13T08:29:38;20.40;99.90
8792;DHT22;4432;50.890;4.744;2023-07-13T08:32:06;20.60;99.90
8792;DHT22;4432;50.890;4.744;2023-07-13T08:34:35;20.60;99.90
8792;DHT22;4432;50.890;4.744;2023-07-13T08:37:01;20.50;99.90
8792;DHT22;4432;50.890;4.744;2023-07-13T08:39:30;20.90;99.90
8792;DHT22;4432;50.890;4.744;2023-07-13T08:42:00;20.80;99.90
8792;DHT22;4432;50.890;4.744;2023-07-13T08:44:36;20.80;99.90
8792;DHT22;4432;50.890;4.744;2023-07-13T08:47:05;20.50;99.90
8792;DHT22;4432;50.890;4.744;2023-07-13T08:49:33;20.60;99.90
8792;DHT22;4432;50.890;4.744;2023-07-13T08:52:12;20.70;99.90
8792;DHT22;4432;50.890;4.744;2023-07-13T08:54:44;21.30;99.90
8792;DHT22;4432;50.890;4.744;2023-07-13T08:57:20;21.10;99.90
8792;DHT22;4432;50.890;4.744;2023-07-13T08:59:47;21.40;99.90
8792;DHT22;4432;50.890;4.744;2023-07-13T09:10:17;21.70;99.90
8792;DHT22;4432;50.890;4.744;2023-07-13T09:15:37;22.00;99.90
8792;DHT22;4432;50.890;4.744;2023-07-13T09:20:44;21.30;99.90
8792;DHT22;4432;50.890;4.744;2023-07-13T09:23:17;21.00;99.90
8792;DHT22;4432;50.890;4.744;2023-07-13T09:25:45;20.70;99.90
8792;DHT22;4432;50.890;4.744;2023-07-13T09:28:19;21.10;99.90
8792;DHT22;4432;50.890;4.744;2023-07-13T09:33:19;22.70;99.90
8792;DHT22;4432;50.890;4.744;2023-07-13T09:35:45;23.10;99.90
8792;DHT22;4432;50.890;4.744;2023-07-13T09:38:17;23.70;99.90
8792;DHT22;4432;50.890;4.744;2023-07-13T09:41:18;23.90;99.90
8792;DHT22;4432;50.890;4.744;2023-07-13T09:44:08;24.10;99.90
8792;DHT22;4432;50.890;4.744;2023-07-13T09:46:35;24.80;99.90
8792;DHT22;4432;50.890;4.744;2023-07-13T09:49:00;25.30;99.90
8792;DHT22;4432;50.890;4.744;2023-07-13T09:51:26;25.00;99.90
8792;DHT22;4432;50.890;4.744;2023-07-13T09:53:52;24.70;99.90
8792;DHT22;4432;50.890;4.744;2023-07-13T09:56:29;24.40;99.90
8792;DHT22;4432;50.890;4.744;2023-07-13T09:58:55;24.20;99.90
8792;DHT22;4432;50.890;4.744;2023-07-13T10:01:36;24.70;99.90
8792;DHT22;4432;50.890;4.744;2023-07-13T10:04:09;23.90;99.90
8792;DHT22;4432;50.890;4.744;2023-07-13T10:06:36;23.50;99.90
8792;DHT22;4432;50.890;4.744;2023-07-13T10:09:02;23.20;99.90
8792;DHT22;4432;50.890;4.744;2023-07-13T10:11:35;23.60;99.90
8792;DHT22;4432;50.890;4.744;2023-07-13T10:14:07;23.70;99.90
8792;DHT22;4432;50.890;4.744;2023-07-13T10:16:35;23.40;99.90
8792;DHT22;4432;50.890;4.744;2023-07-13T10:19:15;23.70;99.90
8792;DHT22;4432;50.890;4.744;2023-07-13T10:21:54;23.70;99.90
8792;DHT22;4432;50.890;4.744;2023-07-13T10:24:23;23.10;99.90
8792;DHT22;4432;50.890;4.744;2023-07-13T10:29:43;23.00;99.90
8792;DHT22;4432;50.890;4.744;2023-07-13T10:32:12;23.40;99.90
8792;DHT22;4432;50.890;4.744;2023-07-13T10:34:40;23.70;99.90
8792;DHT22;4432;50.890;4.744;2023-07-13T10:37:24;24.40;99.90
8792;DHT22;4432;50.890;4.744;2023-07-13T10:39:54;24.90;99.90
8792;DHT22;4432;50.890;4.744;2023-07-13T10:42:42;24.70;99.90
8792;DHT22;4432;50.890;4.744;2023-07-13T10:45:21;25.10;99.90
8792;DHT22;4432;50.890;4.744;2023-07-13T10:47:51;24.40;99.90
8792;DHT22;4432;50.890;4.744;2023-07-13T10:50:27;24.10;99.90
8792;DHT22;4432;50.890;4.744;2023-07-13T10:52:55;24.20;99.90
8792;DHT22;4432;50.890;4.744;2023-07-13T10:55:35;24.60;99.90
8792;DHT22;4432;50.890;4.744;2023-07-13T11:03:22;24.20;99.90
8792;DHT22;4432;50.890;4.744;2023-07-13T11:05:50;24.10;99.90
8792;DHT22;4432;50.890;4.744;2023-07-13T11:08:23;23.80;99.90
8792;DHT22;4432;50.890;4.744;2023-07-13T11:10:57;24.40;99.90
8792;DHT22;4432;50.890;4.744;2023-07-13T11:21:29;24.40;99.90
8792;DHT22;4432;50.890;4.744;2023-07-13T11:24:14;24.10;99.20
8792;DHT22;4432;50.890;4.744;2023-07-13T11:26:51;23.80;99.50
8792;DHT22;4432;50.890;4.744;2023-07-13T11:31:51;23.70;99.90
8792;DHT22;4432;50.890;4.744;2023-07-13T11:34:24;23.70;99.90
8792;DHT22;4432;50.890;4.744;2023-07-13T11:36:51;23.20;99.90
8792;DHT22;4432;50.890;4.744;2023-07-13T11:39:21;23.10;99.90
8792;DHT22;4432;50.890;4.744;2023-07-13T11:41:55;23.30;99.90
8792;DHT22;4432;50.890;4.744;2023-07-13T11:44:24;23.60;99.90
8792;DHT22;4432;50.890;4.744;2023-07-13T11:46:59;23.70;99.90
8792;DHT22;4432;50.890;4.744;2023-07-13T11:49:30;24.10;99.90
8792;DHT22;4432;50.890;4.744;2023-07-13T11:51:57;23.90;99.90
8792;DHT22;4432;50.890;4.744;2023-07-13T11:54:41;24.00;99.80
8792;DHT22;4432;50.890;4.744;2023-07-13T11:57:31;24.50;99.90
8792;DHT22;4432;50.890;4.744;2023-07-13T12:00:02;24.20;99.90
8792;DHT22;4432;50.890;4.744;2023-07-13T12:02:33;24.40;99.50
8792;DHT22;4432;50.890;4.744;2023-07-13T12:05:02;24.00;99.90
8792;DHT22;4432;50.890;4.744;2023-07-13T12:07:31;24.10;99.90
8792;DHT22;4432;50.890;4.744;2023-07-13T12:12:33;24.40;98.90
8792;DHT22;4432;50.890;4.744;2023-07-13T12:14:59;23.70;99.90
8792;DHT22;4432;50.890;4.744;2023-07-13T12:17:25;23.40;99.90
8792;DHT22;4432;50.890;4.744;2023-07-13T12:19:53;23.10;98.30
8792;DHT22;4432;50.890;4.744;2023-07-13T12:22:19;22.90;99.90
8792;DHT22;4432;50.890;4.744;2023-07-13T12:24:47;22.50;99.90
8792;DHT22;4432;50.890;4.744;2023-07-13T12:27:24;22.60;99.90
8792;DHT22;4432;50.890;4.744;2023-07-13T12:29:53;22.80;99.90
8792;DHT22;4432;50.890;4.744;2023-07-13T12:32:24;22.80;99.90
8792;DHT22;4432;50.890;4.744;2023-07-13T12:34:56;22.90;99.90
8792;DHT22;4432;50.890;4.744;2023-07-13T12:37:23;22.80;99.90
8792;DHT22;4432;50.890;4.744;2023-07-13T12:39:50;23.00;99.90
8792;DHT22;4432;50.890;4.744;2023-07-13T12:42:20;23.10;99.90
8792;DHT22;4432;50.890;4.744;2023-07-13T12:44:47;23.20;99.90
8792;DHT22;4432;50.890;4.744;2023-07-13T12:47:14;23.00;99.90
8792;DHT22;4432;50.890;4.744;2023-07-13T12:49:50;22.80;99.90
8792;DHT22;4432;50.890;4.744;2023-07-13T12:52:22;22.80;99.90
8792;DHT22;4432;50.890;4.744;2023-07-13T12:55:06;22.50;99.90
8792;DHT22;4432;50.890;4.744;2023-07-13T12:57:49;22.20;99.90
8792;DHT22;4432;50.890;4.744;2023-07-13T13:00:35;22.00;99.90
8792;DHT22;4432;50.890;4.744;2023-07-13T13:03:14;21.50;99.90
8792;DHT22;4432;50.890;4.744;2023-07-13T13:05:44;21.30;99.90
8792;DHT22;4432;50.890;4.744;2023-07-13T13:08:14;21.30;99.90
8792;DHT22;4432;50.890;4.744;2023-07-13T13:10:40;21.30;99.90
8792;DHT22;4432;50.890;4.744;2023-07-13T13:13:06;21.40;99.90
8792;DHT22;4432;50.890;4.744;2023-07-13T13:15:32;21.00;99.90
8792;DHT22;4432;50.890;4.744;2023-07-13T13:17:58;20.90;99.90
8792;DHT22;4432;50.890;4.744;2023-07-13T13:20:24;20.60;99.90
8792;DHT22;4432;50.890;4.744;2023-07-13T13:22:51;20.10;99.90
8792;DHT22;4432;50.890;4.744;2023-07-13T13:25:18;19.60;99.90
8792;DHT22;4432;50.890;4.744;2023-07-13T13:27:45;19.30;99.90
8792;DHT22;4432;50.890;4.744;2023-07-13T13:30:12;19.10;99.90
8792;DHT22;4432;50.890;4.744;2023-07-13T13:32:39;19.20;99.90
8792;DHT22;4432;50.890;4.744;2023-07-13T13:35:11;19.30;99.90
8792;DHT22;4432;50.890;4.744;2023-07-13T13:37:38;19.40;99.90
8792;DHT22;4432;50.890;4.744;2023-07-13T13:40:17;19.50;99.90
8792;DHT22;4432;50.890;4.744;2023-07-13T13:42:43;19.50;99.90
8792;DHT22;4432;50.890;4.744;2023-07-13T13:45:12;19.70;99.90
8792;DHT22;4432;50.890;4.744;2023-07-13T13:47:39;19.80;99.90
8792;DHT22;4432;50.890;4.744;2023-07-13T13:50:17;20.10;99.90
8792;DHT22;4432;50.890;4.744;2023-07-13T13:52:45;20.40;99.90
8792;DHT22;4432;50.890;4.744;2023-07-13T13:55:16;21.00;99.90
8792;DHT22;4432;50.890;4.744;2023-07-13T13:57:45;21.50;99.90
8792;DHT22;4432;50.890;4.744;2023-07-13T14:00:11;22.00;99.90
8792;DHT22;4432;50.890;4.744;2023-07-13T14:02:41;22.30;99.90
8792;DHT22;4432;50.890;4.744;2023-07-13T14:05:12;22.40;99.90
8792;DHT22;4432;50.890;4.744;2023-07-13T14:07:38;22.30;99.90
8792;DHT22;4432;50.890;4.744;2023-07-13T14:10:16;22.40;99.90
8792;DHT22;4432;50.890;4.744;2023-07-13T14:12:43;22.50;99.90
8792;DHT22;4432;50.890;4.744;2023-07-13T14:17:45;22.60;99.90
8792;DHT22;4432;50.890;4.744;2023-07-13T14:20:12;22.80;99.90
8792;DHT22;4432;50.890;4.744;2023-07-13T14:22:38;22.80;99.90
8792;DHT22;4432;50.890;4.744;2023-07-13T14:25:04;23.00;99.90
8792;DHT22;4432;50.890;4.744;2023-07-13T14:27:30;23.10;99.90
8792;DHT22;4432;50.890;4.744;2023-07-13T14:29:55;23.10;99.90
8792;DHT22;4432;50.890;4.744;2023-07-13T14:32:21;23.00;99.90
8792;DHT22;4432;50.890;4.744;2023-07-13T14:34:47;23.10;99.90
8792;DHT22;4432;50.890;4.744;2023-07-13T14:37:14;23.20;99.90
8792;DHT22;4432;50.890;4.744;2023-07-13T14:39:44;23.60;99.90
8792;DHT22;4432;50.890;4.744;2023-07-13T14:42:10;23.60;99.90
8792;DHT22;4432;50.890;4.744;2023-07-13T14:44:37;23.50;99.90
8792;DHT22;4432;50.890;4.744;2023-07-13T14:47:05;23.30;99.90
8792;DHT22;4432;50.890;4.744;2023-07-13T14:49:40;23.20;99.90
8792;DHT22;4432;50.890;4.744;2023-07-13T14:52:12;23.00;99.90
8792;DHT22;4432;50.890;4.744;2023-07-13T14:54:39;23.00;99.90
8792;DHT22;4432;50.890;4.744;2023-07-13T14:57:17;23.20;99.90
8792;DHT22;4432;50.890;4.744;2023-07-13T14:59:44;22.90;99.90
8792;DHT22;4432;50.890;4.744;2023-07-13T15:04:47;23.00;99.90
8792;DHT22;4432;50.890;4.744;2023-07-13T15:07:13;22.90;99.90
8792;DHT22;4432;50.890;4.744;2023-07-13T15:09:41;22.90;99.90
8792;DHT22;4432;50.890;4.744;2023-07-13T15:12:07;22.80;99.90
8792;DHT22;4432;50.890;4.744;2023-07-13T15:14:33;22.70;99.90
8792;DHT22;4432;50.890;4.744;2023-07-13T15:16:59;22.90;99.90
8792;DHT22;4432;50.890;4.744;2023-07-13T15:19:25;22.70;99.90
8792;DHT22;4432;50.890;4.744;2023-07-13T15:21:53;22.60;99.90
8792;DHT22;4432;50.890;4.744;2023-07-13T15:24:20;22.70;99.90
8792;DHT22;4432;50.890;4.744;2023-07-13T15:26:47;22.80;99.90
8792;DHT22;4432;50.890;4.744;2023-07-13T15:29:15;23.00;99.90
8792;DHT22;4432;50.890;4.744;2023-07-13T15:31:41;23.30;99.90
8792;DHT22;4432;50.890;4.744;2023-07-13T15:34:19;23.70;99.90
8792;DHT22;4432;50.890;4.744;2023-07-13T15:36:46;23.20;99.90
8792;DHT22;4432;50.890;4.744;2023-07-13T15:39:14;23.00;99.90
8792;DHT22;4432;50.890;4.744;2023-07-13T15:41:42;23.10;99.90
8792;DHT22;4432;50.890;4.744;2023-07-13T15:44:27;23.00;99.90
8792;DHT22;4432;50.890;4.744;2023-07-13T15:46:54;23.00;99.90
8792;DHT22;4432;50.890;4.744;2023-07-13T15:49:19;23.00;99.90
8792;DHT22;4432;50.890;4.744;2023-07-13T15:51:46;23.20;99.90
8792;DHT22;4432;50.890;4.744;2023-07-13T15:54:15;23.20;99.90
8792;DHT22;4432;50.890;4.744;2023-07-13T15:56:41;23.20;99.90
8792;DHT22;4432;50.890;4.744;2023-07-13T15:59:11;23.40;99.90
8792;DHT22;4432;50.890;4.744;2023-07-13T16:01:40;23.70;99.90
8792;DHT22;4432;50.890;4.744;2023-07-13T16:04:08;23.80;99.90
8792;DHT22;4432;50.890;4.744;2023-07-13T16:06:36;23.60;99.90
8792;DHT22;4432;50.890;4.744;2023-07-13T16:09:04;23.70;99.90
8792;DHT22;4432;50.890;4.744;2023-07-13T16:11:38;23.60;99.90
8792;DHT22;4432;50.890;4.744;2023-07-13T16:14:04;23.50;99.90
8792;DHT22;4432;50.890;4.744;2023-07-13T16:16:33;23.30;99.90
8792;DHT22;4432;50.890;4.744;2023-07-13T16:19:04;23.30;99.90
8792;DHT22;4432;50.890;4.744;2023-07-13T16:21:32;23.30;99.90
8792;DHT22;4432;50.890;4.744;2023-07-13T16:24:01;23.40;99.90
8792;DHT22;4432;50.890;4.744;2023-07-13T16:26:35;23.30;99.90
8792;DHT22;4432;50.890;4.744;2023-07-13T16:29:14;23.50;99.90
8792;DHT22;4432;50.890;4.744;2023-07-13T16:31:41;23.40;99.90
8792;DHT22;4432;50.890;4.744;2023-07-13T16:34:07;23.50;99.90
8792;DHT22;4432;50.890;4.744;2023-07-13T16:36:36;23.70;99.90
8792;DHT22;4432;50.890;4.744;2023-07-13T16:39:13;23.60;99.90
8792;DHT22;4432;50.890;4.744;2023-07-13T16:41:41;23.50;99.90
8792;DHT22;4432;50.890;4.744;2023-07-13T16:44:16;23.60;99.90
8792;DHT22;4432;50.890;4.744;2023-07-13T16:46:51;23.50;99.90
8792;DHT22;4432;50.890;4.744;2023-07-13T16:49:25;23.40;99.90
8792;DHT22;4432;50.890;4.744;2023-07-13T16:51:52;23.10;99.90
8792;DHT22;4432;50.890;4.744;2023-07-13T16:54:19;23.00;99.90